createdAt,value
2023-05-10T00:00:03.147Z,72
2023-05-10T00:01:02.885Z,72
2023-05-10T00:02:03.457Z,72
2023-05-10T00:03:02.933Z,72
2023-05-10T00:04:02.880Z,72
2023-05-10T00:05:03.277Z,72
2023-05-10T00:06:02.113Z,72
2023-05-10T00:07:01.973Z,72
2023-05-10T00:08:02.474Z,72
2023-05-10T00:09:02.170Z,72
2023-05-10T00:10:02.502Z,72
2023-05-10T00:11:02.244Z,72
2023-05-10T00:12:02.639Z,72
2023-05-10T00:13:02.545Z,72
2023-05-10T00:14:02.367Z,71
2023-05-10T00:15:02.196Z,71
2023-05-10T00:16:02.846Z,71
2023-05-10T00:17:02.824Z,71
2023-05-10T00:18:02.954Z,71
2023-05-10T00:19:03.174Z,71
2023-05-10T00:20:02.775Z,71
2023-05-10T00:21:02.238Z,71
2023-05-10T00:22:02.100Z,71
2023-05-10T00:23:02.676Z,71
2023-05-10T00:24:02.219Z,71
2023-05-10T00:25:02.066Z,71
2023-05-10T00:26:02.569Z,71
2023-05-10T00:27:02.974Z,71
2023-05-10T00:28:02.524Z,71
2023-05-10T00:29:02.406Z,71
2023-05-10T00:30:02.900Z,71
2023-05-10T00:31:02.758Z,71
2023-05-10T00:32:02.598Z,72
2023-05-10T00:33:02.510Z,72
2023-05-10T00:34:02.930Z,72
2023-05-10T00:35:02.817Z,72
2023-05-10T00:36:02.326Z,72
2023-05-10T00:37:02.175Z,72
2023-05-10T00:38:02.680Z,72
2023-05-10T00:39:02.246Z,72
2023-05-10T00:40:02.044Z,72
2023-05-10T00:41:02.560Z,72
2023-05-10T00:42:02.288Z,72
2023-05-10T00:43:02.823Z,72
2023-05-10T00:44:02.726Z,72
2023-05-10T00:45:02.525Z,72
2023-05-10T00:46:03.282Z,72
2023-05-10T00:47:03.026Z,72
2023-05-10T00:48:03.434Z,72
2023-05-10T00:49:03.087Z,72
2023-05-10T00:50:03.402Z,72
2023-05-10T00:51:02.695Z,72
2023-05-10T00:52:02.446Z,72
2023-05-10T00:53:02.894Z,72
2023-05-10T00:54:02.713Z,72
2023-05-10T00:55:02.440Z,72
2023-05-10T00:56:02.948Z,72
2023-05-10T00:57:02.746Z,72
2023-05-10T00:58:03.353Z,72
2023-05-10T00:59:02.866Z,72
2023-05-10T01:00:02.691Z,72
2023-05-10T01:01:02.427Z,72
2023-05-10T01:02:02.132Z,72
2023-05-10T01:03:02.646Z,72
2023-05-10T01:04:02.129Z,72
2023-05-10T01:05:01.982Z,72
2023-05-10T01:06:01.988Z,72
2023-05-10T01:07:01.497Z,72
2023-05-10T01:08:02.042Z,72
2023-05-10T01:09:01.618Z,72
2023-05-10T01:10:02.143Z,72
2023-05-10T01:11:02.154Z,72
2023-05-10T01:12:01.952Z,72
2023-05-10T01:13:01.835Z,72
2023-05-10T01:14:01.705Z,72
2023-05-10T01:15:02.226Z,72
2023-05-10T01:16:02.802Z,72
2023-05-10T01:17:02.366Z,72
2023-05-10T01:18:02.925Z,72
2023-05-10T01:19:02.412Z,72
2023-05-10T01:20:02.357Z,72
2023-05-10T01:21:02.864Z,72
2023-05-10T01:22:02.747Z,72
2023-05-10T01:23:02.534Z,72
2023-05-10T01:24:03.038Z,72
2023-05-10T01:25:02.572Z,72
2023-05-10T01:26:01.854Z,72
2023-05-10T01:27:01.604Z,72
2023-05-10T01:28:02.102Z,72
2023-05-10T01:29:01.972Z,72
2023-05-10T01:30:14.755Z,72
2023-05-10T01:31:02.252Z,72
2023-05-10T01:32:02.043Z,72
2023-05-10T01:33:01.850Z,72
2023-05-10T01:34:02.346Z,72
2023-05-10T01:35:01.957Z,72
2023-05-10T01:36:02.563Z,72
2023-05-10T01:37:02.321Z,72
2023-05-10T01:38:02.131Z,72
2023-05-10T01:39:02.596Z,72
2023-05-10T01:40:02.375Z,72
2023-05-10T01:41:02.871Z,72
2023-05-10T01:42:02.889Z,72
2023-05-10T01:43:02.728Z,72
2023-05-10T01:44:02.494Z,72
2023-05-10T01:45:02.941Z,72
2023-05-10T01:46:02.333Z,72
2023-05-10T01:47:02.080Z,72
2023-05-10T01:48:02.024Z,72
2023-05-10T01:49:02.018Z,72
2023-05-10T01:50:01.951Z,72
2023-05-10T01:51:02.485Z,72
2023-05-10T01:52:02.477Z,72
2023-05-10T01:53:02.066Z,72
2023-05-10T01:54:02.500Z,72
2023-05-10T01:55:02.298Z,72
2023-05-10T01:56:02.783Z,72
2023-05-10T01:57:02.429Z,72
2023-05-10T01:58:02.232Z,72
2023-05-10T01:59:02.751Z,72
2023-05-10T02:00:02.633Z,72
2023-05-10T02:01:02.458Z,72
2023-05-10T02:02:02.067Z,72
2023-05-10T02:03:01.999Z,72
2023-05-10T02:04:01.873Z,72
2023-05-10T02:05:01.812Z,72
2023-05-10T02:06:02.049Z,72
2023-05-10T02:07:01.843Z,72
2023-05-10T02:08:02.447Z,72
2023-05-10T02:09:02.043Z,72
2023-05-10T02:10:02.288Z,72
2023-05-10T02:11:02.837Z,72
2023-05-10T02:12:02.401Z,72
2023-05-10T02:13:02.220Z,72
2023-05-10T02:14:02.725Z,72
2023-05-10T02:15:02.347Z,72
2023-05-10T02:16:02.950Z,72
2023-05-10T02:17:02.634Z,72
2023-05-10T02:18:02.467Z,72
2023-05-10T02:19:02.304Z,72
2023-05-10T02:20:02.364Z,72
2023-05-10T02:21:02.570Z,72
2023-05-10T02:22:02.161Z,72
2023-05-10T02:23:01.914Z,72
2023-05-10T02:24:02.410Z,72
2023-05-10T02:25:02.297Z,72
2023-05-10T02:26:02.812Z,72
2023-05-10T02:27:02.378Z,72
2023-05-10T02:28:02.249Z,72
2023-05-10T02:29:02.706Z,72
2023-05-10T02:30:02.282Z,72
2023-05-10T02:31:02.313Z,72
2023-05-10T02:32:02.836Z,72
2023-05-10T02:33:02.476Z,72
2023-05-10T02:34:02.326Z,72
2023-05-10T02:35:02.514Z,72
2023-05-10T02:36:02.352Z,72
2023-05-10T02:37:02.909Z,72
2023-05-10T02:38:02.776Z,72
2023-05-10T02:39:02.598Z,72
2023-05-10T02:40:02.641Z,72
2023-05-10T02:41:02.459Z,72
2023-05-10T02:42:02.533Z,72
2023-05-10T02:43:03.028Z,72
2023-05-10T02:44:02.702Z,72
2023-05-10T02:45:02.518Z,72
2023-05-10T02:46:01.812Z,72
2023-05-10T02:47:02.221Z,72
2023-05-10T02:48:01.789Z,72
2023-05-10T02:49:02.293Z,72
2023-05-10T02:50:01.915Z,72
2023-05-10T02:51:01.719Z,72
2023-05-10T02:52:02.305Z,72
2023-05-10T02:53:01.935Z,72
2023-05-10T02:54:01.770Z,72
2023-05-10T02:55:02.235Z,73
2023-05-10T02:56:02.071Z,73
2023-05-10T02:57:02.074Z,73
2023-05-10T02:58:02.600Z,73
2023-05-10T02:59:02.446Z,73
2023-05-10T03:00:02.340Z,73
2023-05-10T03:01:02.449Z,73
2023-05-10T03:02:02.305Z,73
2023-05-10T03:03:02.856Z,73
2023-05-10T03:04:02.547Z,73
2023-05-10T03:05:02.383Z,73
2023-05-10T03:06:02.913Z,73
2023-05-10T03:07:02.885Z,73
2023-05-10T03:08:03.295Z,73
2023-05-10T03:09:03.175Z,73
2023-05-10T03:10:03.011Z,73
2023-05-10T03:11:02.578Z,73
2023-05-10T03:12:02.816Z,73
2023-05-10T03:13:02.603Z,73
2023-05-10T03:14:03.022Z,73
2023-05-10T03:15:02.644Z,73
2023-05-10T03:16:03.225Z,73
2023-05-10T03:17:03.510Z,73
2023-05-10T03:18:03.388Z,73
2023-05-10T03:19:03.290Z,73
2023-05-10T03:20:03.090Z,73
2023-05-10T03:21:02.632Z,73
2023-05-10T03:22:02.468Z,73
2023-05-10T03:23:02.727Z,72
2023-05-10T03:24:02.619Z,73
2023-05-10T03:25:02.510Z,73
2023-05-10T03:26:02.938Z,73
2023-05-10T03:27:03.415Z,73
2023-05-10T03:28:02.967Z,72
2023-05-10T03:29:03.445Z,72
2023-05-10T03:30:03.008Z,72
2023-05-10T03:31:02.637Z,73
2023-05-10T03:32:02.488Z,72
2023-05-10T03:33:03.031Z,72
2023-05-10T03:34:02.711Z,72
2023-05-10T03:35:02.629Z,72
2023-05-10T03:36:03.201Z,72
2023-05-10T03:37:03.094Z,73
2023-05-10T03:38:03.001Z,72
2023-05-10T03:39:03.538Z,72
2023-05-10T03:40:03.469Z,72
2023-05-10T03:41:02.414Z,72
2023-05-10T03:42:02.356Z,72
2023-05-10T03:43:02.165Z,72
2023-05-10T03:44:02.683Z,72
2023-05-10T03:45:02.272Z,72
2023-05-10T03:46:02.813Z,72
2023-05-10T03:47:02.686Z,72
2023-05-10T03:48:02.693Z,72
2023-05-10T03:49:02.764Z,73
2023-05-10T03:50:02.957Z,73
2023-05-10T03:51:02.559Z,73
2023-05-10T03:52:02.431Z,73
2023-05-10T03:53:02.650Z,73
2023-05-10T03:54:02.501Z,73
2023-05-10T03:55:02.275Z,73
2023-05-10T03:56:02.761Z,73
2023-05-10T03:57:03.000Z,73
2023-05-10T03:58:02.694Z,73
2023-05-10T03:59:02.531Z,73
2023-05-10T04:00:02.996Z,73
2023-05-10T04:01:02.209Z,73
2023-05-10T04:02:02.111Z,73
2023-05-10T04:03:02.037Z,73
2023-05-10T04:04:02.079Z,73
2023-05-10T04:05:01.967Z,73
2023-05-10T04:06:02.596Z,73
2023-05-10T04:07:02.545Z,73
2023-05-10T04:08:02.458Z,73
2023-05-10T04:09:02.574Z,73
2023-05-10T04:10:02.440Z,73
2023-05-10T04:11:02.958Z,73
2023-05-10T04:12:02.719Z,73
2023-05-10T04:13:02.568Z,73
2023-05-10T04:14:03.086Z,73
2023-05-10T04:15:02.839Z,73
2023-05-10T04:16:02.645Z,73
2023-05-10T04:17:02.474Z,73
2023-05-10T04:18:02.579Z,73
2023-05-10T04:19:02.376Z,73
2023-05-10T04:20:02.821Z,73
2023-05-10T04:21:03.103Z,73
2023-05-10T04:22:03.089Z,73
2023-05-10T04:23:02.986Z,73
2023-05-10T04:24:02.860Z,73
2023-05-10T04:25:03.248Z,73
2023-05-10T04:26:02.576Z,73
2023-05-10T04:27:02.409Z,73
2023-05-10T04:28:02.223Z,73
2023-05-10T04:29:02.068Z,73
2023-05-10T04:30:02.571Z,73
2023-05-10T04:31:03.080Z,73
2023-05-10T04:32:02.763Z,73
2023-05-10T04:33:02.700Z,73
2023-05-10T04:34:02.693Z,73
2023-05-10T04:35:03.174Z,73
2023-05-10T04:36:02.686Z,73
2023-05-10T04:37:02.356Z,73
2023-05-10T04:38:02.273Z,73
2023-05-10T04:39:02.165Z,73
2023-05-10T04:40:02.018Z,73
2023-05-10T04:41:02.748Z,73
2023-05-10T04:42:02.462Z,73
2023-05-10T04:43:02.427Z,73
2023-05-10T04:44:02.381Z,73
2023-05-10T04:45:02.437Z,73
2023-05-10T04:46:03.261Z,73
2023-05-10T04:47:02.681Z,73
2023-05-10T04:48:02.640Z,73
2023-05-10T04:49:02.613Z,73
2023-05-10T04:50:02.676Z,73
2023-05-10T04:51:03.354Z,73
2023-05-10T04:52:03.011Z,74
2023-05-10T04:53:03.026Z,74
2023-05-10T04:54:06.446Z,75
2023-05-10T04:55:02.806Z,77
2023-05-10T04:56:02.528Z,78
2023-05-10T04:57:02.262Z,78
2023-05-10T04:58:02.131Z,79
2023-05-10T04:59:02.544Z,79
2023-05-10T05:00:02.376Z,80
2023-05-10T05:01:02.338Z,79
2023-05-10T05:02:02.492Z,79
2023-05-10T05:03:02.469Z,79
2023-05-10T05:04:02.497Z,79
2023-05-10T05:05:02.664Z,78
2023-05-10T05:06:03.139Z,78
2023-05-10T05:07:02.904Z,78
2023-05-10T05:08:02.828Z,77
2023-05-10T05:09:02.750Z,77
2023-05-10T05:10:02.738Z,77
2023-05-10T05:11:02.119Z,77
2023-05-10T05:12:02.752Z,77
2023-05-10T05:13:02.435Z,77
2023-05-10T05:14:02.247Z,77
2023-05-10T05:15:02.147Z,77
2023-05-10T05:16:03.143Z,77
2023-05-10T05:17:03.295Z,77
2023-05-10T05:18:03.136Z,76
2023-05-10T05:19:02.905Z,76
2023-05-10T05:20:02.941Z,76
2023-05-10T05:21:02.404Z,76
2023-05-10T05:22:02.370Z,76
2023-05-10T05:23:02.715Z,75
2023-05-10T05:24:02.784Z,75
2023-05-10T05:25:02.435Z,75
2023-05-10T05:26:01.818Z,75
2023-05-10T05:27:01.783Z,75
2023-05-10T05:28:02.150Z,75
2023-05-10T05:29:02.177Z,75
2023-05-10T05:30:02.350Z,75
2023-05-10T05:31:02.150Z,75
2023-05-10T05:32:02.347Z,75
2023-05-10T05:33:02.522Z,75
2023-05-10T05:34:02.509Z,75
2023-05-10T05:35:02.453Z,75
2023-05-10T05:36:02.479Z,75
2023-05-10T05:37:02.384Z,74
2023-05-10T05:38:02.518Z,74
2023-05-10T05:39:02.868Z,74
2023-05-10T05:40:02.985Z,74
2023-05-10T05:41:02.778Z,74
2023-05-10T05:42:02.773Z,74
2023-05-10T05:43:02.740Z,74
2023-05-10T05:44:02.762Z,74
2023-05-10T05:45:02.800Z,74
2023-05-10T05:46:02.882Z,74
2023-05-10T05:47:02.912Z,74
2023-05-10T05:48:03.007Z,74
2023-05-10T05:49:02.758Z,74
2023-05-10T05:50:03.330Z,74
2023-05-10T05:51:02.367Z,74
2023-05-10T05:52:02.445Z,74
2023-05-10T05:53:02.491Z,74
2023-05-10T05:54:02.842Z,74
2023-05-10T05:55:02.369Z,74
2023-05-10T05:56:02.462Z,74
2023-05-10T05:57:02.474Z,74
2023-05-10T05:58:02.547Z,74
2023-05-10T05:59:02.379Z,74
2023-05-10T06:00:02.841Z,74
2023-05-10T06:01:01.982Z,74
2023-05-10T06:02:02.452Z,74
2023-05-10T06:03:02.017Z,74
2023-05-10T06:04:01.986Z,74
2023-05-10T06:05:02.169Z,74
2023-05-10T06:06:02.154Z,74
2023-05-10T06:07:02.147Z,74
2023-05-10T06:08:02.248Z,74
2023-05-10T06:09:02.300Z,74
2023-05-10T06:10:02.053Z,74
2023-05-10T06:11:02.767Z,74
2023-05-10T06:12:02.918Z,74
2023-05-10T06:13:03.023Z,74
2023-05-10T06:14:03.110Z,74
2023-05-10T06:15:02.714Z,74
2023-05-10T06:16:02.314Z,74
2023-05-10T06:17:02.551Z,74
2023-05-10T06:18:02.161Z,73
2023-05-10T06:19:02.656Z,73
2023-05-10T06:20:02.157Z,73
2023-05-10T06:21:02.685Z,73
2023-05-10T06:22:02.815Z,73
2023-05-10T06:23:02.864Z,73
2023-05-10T06:24:02.484Z,73
2023-05-10T06:25:02.500Z,73
2023-05-10T06:26:02.266Z,73
2023-05-10T06:27:02.405Z,73
2023-05-10T06:28:02.586Z,73
2023-05-10T06:29:02.504Z,73
2023-05-10T06:30:12.492Z,73
2023-05-10T06:31:02.762Z,73
2023-05-10T06:32:02.561Z,73
2023-05-10T06:33:02.948Z,73
2023-05-10T06:34:02.648Z,73
2023-05-10T06:35:02.795Z,73
2023-05-10T06:36:03.025Z,73
2023-05-10T06:37:02.909Z,73
2023-05-10T06:38:03.104Z,73
2023-05-10T06:39:02.922Z,73
2023-05-10T06:40:02.714Z,73
2023-05-10T06:41:02.119Z,73
2023-05-10T06:42:02.220Z,73
2023-05-10T06:43:02.224Z,73
2023-05-10T06:44:02.068Z,73
2023-05-10T06:45:02.107Z,73
2023-05-10T06:46:02.305Z,73
2023-05-10T06:47:02.225Z,73
2023-05-10T06:48:02.466Z,73
2023-05-10T06:49:02.388Z,73
2023-05-10T06:50:02.298Z,73
2023-05-10T06:51:02.967Z,73
2023-05-10T06:52:02.909Z,73
2023-05-10T06:53:02.919Z,73
2023-05-10T06:54:03.147Z,73
2023-05-10T06:55:02.937Z,73
2023-05-10T06:56:04.408Z,73
2023-05-10T06:57:04.119Z,73
2023-05-10T06:58:02.754Z,73
2023-05-10T06:59:02.911Z,73
2023-05-10T07:00:03.013Z,73
2023-05-10T07:01:02.703Z,73
2023-05-10T07:02:02.488Z,73
2023-05-10T07:03:02.548Z,73
2023-05-10T07:04:02.599Z,73
2023-05-10T07:05:03.593Z,73
2023-05-10T07:06:02.734Z,73
2023-05-10T07:07:02.765Z,73
2023-05-10T07:08:02.862Z,73
2023-05-10T07:09:02.574Z,73
2023-05-10T07:10:02.894Z,73
2023-05-10T07:11:02.506Z,73
2023-05-10T07:12:02.259Z,73
2023-05-10T07:13:02.291Z,73
2023-05-10T07:14:02.063Z,73
2023-05-10T07:15:02.064Z,73
2023-05-10T07:16:02.849Z,73
2023-05-10T07:17:02.653Z,73
2023-05-10T07:18:02.900Z,73
2023-05-10T07:19:02.659Z,73
2023-05-10T07:20:02.767Z,73
2023-05-10T07:21:02.458Z,73
2023-05-10T07:22:02.333Z,73
2023-05-10T07:23:02.297Z,72
2023-05-10T07:24:02.045Z,73
2023-05-10T07:25:02.169Z,73
2023-05-10T07:26:03.095Z,73
2023-05-10T07:27:02.932Z,73
2023-05-10T07:28:03.026Z,72
2023-05-10T07:29:03.043Z,73
2023-05-10T07:30:02.842Z,73
2023-05-10T07:31:02.741Z,72
2023-05-10T07:32:02.565Z,73
2023-05-10T07:33:02.111Z,72
2023-05-10T07:34:02.205Z,72
2023-05-10T07:35:02.287Z,72
2023-05-10T07:36:02.843Z,72
2023-05-10T07:37:02.760Z,72
2023-05-10T07:38:02.337Z,72
2023-05-10T07:39:02.626Z,72
2023-05-10T07:40:02.797Z,72
2023-05-10T07:41:03.355Z,72
2023-05-10T07:42:03.173Z,72
2023-05-10T07:43:03.283Z,72
2023-05-10T07:44:02.904Z,72
2023-05-10T07:45:03.205Z,72
2023-05-10T07:46:03.423Z,72
2023-05-10T07:47:03.141Z,72
2023-05-10T07:48:03.273Z,72
2023-05-10T07:49:03.315Z,72
2023-05-10T07:50:03.244Z,72
2023-05-10T07:51:03.399Z,72
2023-05-10T07:52:03.157Z,72
2023-05-10T07:53:03.154Z,72
2023-05-10T07:54:03.265Z,72
2023-05-10T07:55:03.292Z,72
2023-05-10T07:56:02.353Z,72
2023-05-10T07:57:02.443Z,72
2023-05-10T07:58:02.562Z,72
2023-05-10T07:59:02.866Z,72
2023-05-10T08:00:03.063Z,72
2023-05-10T08:01:02.661Z,72
2023-05-10T08:02:03.362Z,72
2023-05-10T08:03:03.002Z,72
2023-05-10T08:04:02.899Z,72
2023-05-10T08:05:03.136Z,72
2023-05-10T08:06:03.209Z,72
2023-05-10T08:07:02.273Z,72
2023-05-10T08:08:02.230Z,72
2023-05-10T08:09:02.682Z,72
2023-05-10T08:10:02.353Z,72
2023-05-10T08:11:02.808Z,72
2023-05-10T08:12:02.587Z,72
2023-05-10T08:13:02.387Z,72
2023-05-10T08:14:02.661Z,72
2023-05-10T08:15:02.396Z,72
2023-05-10T08:16:02.087Z,72
2023-05-10T08:17:03.063Z,72
2023-05-10T08:18:03.245Z,72
2023-05-10T08:19:02.920Z,72
2023-05-10T08:20:03.052Z,72
2023-05-10T08:21:03.004Z,72
2023-05-10T08:22:02.948Z,72
2023-05-10T08:23:03.019Z,72
2023-05-10T08:24:02.982Z,72
2023-05-10T08:25:02.981Z,72
2023-05-10T08:26:02.897Z,72
2023-05-10T08:27:02.850Z,72
2023-05-10T08:28:02.560Z,72
2023-05-10T08:29:02.614Z,72
2023-05-10T08:30:02.877Z,72
2023-05-10T08:31:02.861Z,72
2023-05-10T08:32:02.453Z,72
2023-05-10T08:33:02.155Z,72
2023-05-10T08:34:02.478Z,72
2023-05-10T08:35:02.462Z,72
2023-05-10T08:36:02.561Z,73
2023-05-10T08:37:02.212Z,73
2023-05-10T08:38:02.716Z,73
2023-05-10T08:39:02.638Z,73
2023-05-10T08:40:02.712Z,73
2023-05-10T08:41:02.591Z,73
2023-05-10T08:42:03.245Z,73
2023-05-10T08:43:03.141Z,73
2023-05-10T08:44:03.178Z,74
2023-05-10T08:45:02.927Z,75
2023-05-10T08:46:03.003Z,76
2023-05-10T08:47:02.775Z,77
2023-05-10T08:48:02.683Z,77
2023-05-10T08:49:02.680Z,77
2023-05-10T08:50:02.619Z,77
2023-05-10T08:51:02.363Z,77
2023-05-10T08:52:03.065Z,77
2023-05-10T08:53:02.946Z,77
2023-05-10T08:54:02.955Z,77
2023-05-10T08:55:02.855Z,77
2023-05-10T08:56:02.849Z,76
2023-05-10T08:57:02.716Z,76
2023-05-10T08:58:02.501Z,76
2023-05-10T08:59:02.638Z,76
2023-05-10T09:00:02.601Z,76
2023-05-10T09:01:02.632Z,76
2023-05-10T09:02:03.357Z,76
2023-05-10T09:03:03.377Z,76
2023-05-10T09:04:03.472Z,76
2023-05-10T09:05:03.776Z,76
2023-05-10T09:06:03.647Z,76
2023-05-10T09:07:03.622Z,76
2023-05-10T09:08:03.623Z,76
2023-05-10T09:09:03.540Z,76
2023-05-10T09:10:03.235Z,76
2023-05-10T09:11:03.803Z,75
2023-05-10T09:12:03.154Z,75
2023-05-10T09:13:03.146Z,75
2023-05-10T09:14:02.956Z,75
2023-05-10T09:15:03.132Z,75
2023-05-10T09:16:10.166Z,75
2023-05-10T09:17:03.758Z,75
2023-05-10T09:18:03.547Z,75
2023-05-10T09:19:03.446Z,75
2023-05-10T09:20:03.471Z,75
2023-05-10T09:21:03.502Z,74
2023-05-10T09:22:03.264Z,74
2023-05-10T09:23:03.143Z,74
2023-05-10T09:24:03.237Z,74
2023-05-10T09:25:02.838Z,74
2023-05-10T09:26:02.838Z,74
2023-05-10T09:27:03.381Z,74
2023-05-10T09:28:03.310Z,74
2023-05-10T09:29:03.362Z,74
2023-05-10T09:30:03.358Z,74
2023-05-10T09:31:03.279Z,74
2023-05-10T09:32:03.920Z,73
2023-05-10T09:33:03.690Z,73
2023-05-10T09:34:03.737Z,73
2023-05-10T09:35:03.920Z,73
2023-05-10T09:36:03.806Z,74
2023-05-10T09:37:03.563Z,74
2023-05-10T09:38:03.327Z,74
2023-05-10T09:39:03.305Z,74
2023-05-10T09:40:03.293Z,74
2023-05-10T09:41:03.259Z,75
2023-05-10T09:42:03.944Z,76
2023-05-10T09:43:03.710Z,77
2023-05-10T09:44:03.842Z,77
2023-05-10T09:45:03.963Z,77
2023-05-10T09:46:03.834Z,77
2023-05-10T09:47:02.922Z,78
2023-05-10T09:48:03.030Z,78
2023-05-10T09:49:03.136Z,78
2023-05-10T09:50:03.051Z,77
2023-05-10T09:51:02.931Z,78
2023-05-10T09:52:02.952Z,77
2023-05-10T09:53:03.618Z,76
2023-05-10T09:54:03.341Z,77
2023-05-10T09:55:03.015Z,76
2023-05-10T09:56:02.991Z,76
2023-05-10T09:57:03.096Z,76
2023-05-10T09:58:03.157Z,75
2023-05-10T09:59:03.373Z,75
2023-05-10T10:00:03.417Z,75
2023-05-10T10:01:03.672Z,75
2023-05-10T10:02:02.661Z,75
2023-05-10T10:03:02.825Z,75
2023-05-10T10:04:02.750Z,75
2023-05-10T10:05:02.841Z,75
2023-05-10T10:06:02.791Z,75
2023-05-10T10:07:02.910Z,75
2023-05-10T10:08:02.992Z,75
2023-05-10T10:09:03.056Z,75
2023-05-10T10:10:03.092Z,74
2023-05-10T10:11:02.985Z,74
2023-05-10T10:12:03.165Z,74
2023-05-10T10:13:03.255Z,74
2023-05-10T10:14:03.303Z,74
2023-05-10T10:15:03.226Z,74
2023-05-10T10:16:03.392Z,74
2023-05-10T10:17:07.749Z,74
2023-05-10T10:18:02.496Z,74
2023-05-10T10:19:02.525Z,74
2023-05-10T10:20:02.459Z,73
2023-05-10T10:21:03.070Z,73
2023-05-10T10:22:02.905Z,73
2023-05-10T10:23:02.853Z,73
2023-05-10T10:24:03.412Z,73
2023-05-10T10:25:03.251Z,73
2023-05-10T10:26:03.200Z,73
2023-05-10T10:27:03.241Z,73
2023-05-10T10:28:03.352Z,73
2023-05-10T10:29:03.380Z,72
2023-05-10T10:30:03.316Z,72
2023-05-10T10:31:03.172Z,72
2023-05-10T10:32:02.938Z,72
2023-05-10T10:33:10.184Z,72
2023-05-10T10:34:03.039Z,72
2023-05-10T10:35:03.048Z,72
2023-05-10T10:36:03.112Z,72
2023-05-10T10:37:03.201Z,72
2023-05-10T10:38:03.277Z,72
2023-05-10T10:39:03.146Z,72
2023-05-10T10:40:03.322Z,72
2023-05-10T10:41:03.278Z,72
2023-05-10T10:42:03.332Z,72
2023-05-10T10:43:03.392Z,72
2023-05-10T10:44:03.463Z,72
2023-05-10T10:45:03.465Z,72
2023-05-10T10:46:03.815Z,72
2023-05-10T10:47:02.845Z,72
2023-05-10T10:48:02.851Z,72
2023-05-10T10:49:02.786Z,72
2023-05-10T10:50:02.856Z,72
2023-05-10T10:51:03.055Z,72
2023-05-10T10:52:02.780Z,72
2023-05-10T10:53:02.982Z,72
2023-05-10T10:54:03.052Z,72
2023-05-10T10:55:03.139Z,72
2023-05-10T10:56:02.815Z,72
2023-05-10T10:57:02.824Z,72
2023-05-10T10:58:02.767Z,72
2023-05-10T10:59:02.843Z,72
2023-05-10T11:00:02.758Z,72
2023-05-10T11:01:02.858Z,72
2023-05-10T11:02:01.864Z,72
2023-05-10T11:03:01.925Z,72
2023-05-10T11:04:02.269Z,72
2023-05-10T11:05:02.065Z,72
2023-05-10T11:06:02.142Z,72
2023-05-10T11:07:02.456Z,72
2023-05-10T11:08:01.905Z,72
2023-05-10T11:09:01.945Z,72
2023-05-10T11:10:02.203Z,72
2023-05-10T11:11:02.060Z,72
2023-05-10T11:12:02.759Z,72
2023-05-10T11:13:02.914Z,72
2023-05-10T11:14:02.713Z,72
2023-05-10T11:15:02.775Z,72
2023-05-10T11:16:02.797Z,72
2023-05-10T11:17:02.908Z,72
2023-05-10T11:18:03.040Z,72
2023-05-10T11:19:02.725Z,72
2023-05-10T11:20:03.262Z,72
2023-05-10T11:21:02.849Z,72
2023-05-10T11:22:03.084Z,72
2023-05-10T11:23:03.031Z,72
2023-05-10T11:24:02.681Z,72
2023-05-10T11:25:02.672Z,72
2023-05-10T11:26:02.823Z,72
2023-05-10T11:27:02.506Z,72
2023-05-10T11:28:02.611Z,72
2023-05-10T11:29:02.613Z,72
2023-05-10T11:30:04.853Z,72
2023-05-10T11:31:02.459Z,72
2023-05-10T11:32:02.237Z,72
2023-05-10T11:33:02.394Z,72
2023-05-10T11:34:01.906Z,72
2023-05-10T11:35:01.947Z,72
2023-05-10T11:36:02.074Z,72
2023-05-10T11:37:02.937Z,72
2023-05-10T11:38:02.826Z,72
2023-05-10T11:39:02.686Z,72
2023-05-10T11:40:02.840Z,72
2023-05-10T11:41:02.884Z,72
2023-05-10T11:42:02.724Z,72
2023-05-10T11:43:02.756Z,72
2023-05-10T11:44:02.771Z,72
2023-05-10T11:45:02.723Z,72
2023-05-10T11:46:03.034Z,72
2023-05-10T11:47:02.661Z,73
2023-05-10T11:48:02.942Z,73
2023-05-10T11:49:03.036Z,73
2023-05-10T11:50:02.683Z,73
2023-05-10T11:51:02.764Z,73
2023-05-10T11:52:02.545Z,73
2023-05-10T11:53:02.566Z,72
2023-05-10T11:54:02.614Z,72
2023-05-10T11:55:02.254Z,73
2023-05-10T11:56:02.285Z,73
2023-05-10T11:57:02.969Z,73
2023-05-10T11:58:02.477Z,73
2023-05-10T11:59:02.831Z,72
2023-05-10T12:00:02.926Z,72
2023-05-10T12:01:02.723Z,73
2023-05-10T12:02:02.409Z,72
2023-05-10T12:03:02.169Z,73
2023-05-10T12:04:02.514Z,73
2023-05-10T12:05:02.572Z,73
2023-05-10T12:06:02.390Z,72
2023-05-10T12:07:03.212Z,72
2023-05-10T12:08:02.695Z,72
2023-05-10T12:09:02.809Z,72
2023-05-10T12:10:02.892Z,72
2023-05-10T12:11:02.886Z,72
2023-05-10T12:12:02.424Z,72
2023-05-10T12:13:02.491Z,72
2023-05-10T12:14:02.661Z,72
2023-05-10T12:15:02.268Z,72
2023-05-10T12:16:02.229Z,72
2023-05-10T12:17:03.011Z,72
2023-05-10T12:18:03.006Z,72
2023-05-10T12:19:02.870Z,72
2023-05-10T12:20:02.570Z,72
2023-05-10T12:21:02.492Z,72
2023-05-10T12:22:02.964Z,72
2023-05-10T12:23:03.112Z,72
2023-05-10T12:24:03.038Z,72
2023-05-10T12:25:03.086Z,72
2023-05-10T12:26:03.252Z,72
2023-05-10T12:27:02.786Z,72
2023-05-10T12:28:02.552Z,72
2023-05-10T12:29:02.364Z,72
2023-05-10T12:30:02.591Z,72
2023-05-10T12:31:02.269Z,72
2023-05-10T12:32:02.866Z,72
2023-05-10T12:33:02.597Z,72
2023-05-10T12:34:02.552Z,72
2023-05-10T12:35:02.489Z,72
2023-05-10T12:36:02.720Z,72
2023-05-10T12:37:02.456Z,72
2023-05-10T12:38:02.165Z,72
2023-05-10T12:39:02.241Z,72
2023-05-10T12:40:02.234Z,72
2023-05-10T12:41:02.152Z,72
2023-05-10T12:42:02.314Z,72
2023-05-10T12:43:02.713Z,72
2023-05-10T12:44:02.779Z,72
2023-05-10T12:45:02.874Z,72
2023-05-10T12:46:03.127Z,72
2023-05-10T12:47:02.732Z,72
2023-05-10T12:48:02.796Z,72
2023-05-10T12:49:08.939Z,72
2023-05-10T12:50:03.342Z,72
2023-05-10T12:51:02.750Z,72
2023-05-10T12:52:02.999Z,72
2023-05-10T12:53:03.087Z,72
2023-05-10T12:54:03.121Z,72
2023-05-10T12:55:02.907Z,72
2023-05-10T12:56:02.970Z,72
2023-05-10T12:57:03.144Z,72
2023-05-10T12:58:02.899Z,72
2023-05-10T12:59:02.802Z,72
2023-05-10T13:00:02.788Z,72
2023-05-10T13:01:02.833Z,72
2023-05-10T13:02:01.911Z,72
2023-05-10T13:03:02.560Z,72
2023-05-10T13:04:01.924Z,72
2023-05-10T13:05:02.625Z,72
2023-05-10T13:06:02.265Z,72
2023-05-10T13:07:01.978Z,72
2023-05-10T13:08:02.015Z,72
2023-05-10T13:09:01.933Z,72
2023-05-10T13:10:02.522Z,72
2023-05-10T13:11:02.234Z,72
2023-05-10T13:12:02.263Z,72
2023-05-10T13:13:02.865Z,72
2023-05-10T13:14:02.567Z,72
2023-05-10T13:15:02.502Z,72
2023-05-10T13:16:02.440Z,72
2023-05-10T13:17:02.526Z,72
2023-05-10T13:18:02.630Z,72
2023-05-10T13:19:02.501Z,72
2023-05-10T13:20:02.843Z,72
2023-05-10T13:21:02.798Z,72
2023-05-10T13:22:01.725Z,72
2023-05-10T13:23:01.733Z,72
2023-05-10T13:25:14.034Z,73
2023-05-10T13:26:14.407Z,73
2023-05-10T13:27:14.519Z,73
2023-05-10T13:28:14.213Z,73
2023-05-10T13:29:14.192Z,73
2023-05-10T13:29:19.476Z,72
2023-05-10T13:30:02.678Z,73
2023-05-10T13:31:03.042Z,73
2023-05-10T13:32:02.967Z,72
2023-05-10T13:33:03.164Z,73
2023-05-10T13:34:02.984Z,72
2023-05-10T13:35:02.670Z,73
2023-05-10T13:36:02.669Z,73
2023-05-10T13:37:02.628Z,72
2023-05-10T13:38:02.912Z,72
2023-05-10T13:39:02.921Z,72
2023-05-10T13:40:03.617Z,72
2023-05-10T13:41:03.752Z,72
2023-05-10T13:42:03.507Z,72
2023-05-10T13:43:03.344Z,72
2023-05-10T13:44:03.595Z,72
2023-05-10T13:45:03.091Z,72
2023-05-10T13:46:03.180Z,72
2023-05-10T13:47:03.161Z,72
2023-05-10T13:48:03.211Z,72
2023-05-10T13:49:03.255Z,72
2023-05-10T13:50:03.012Z,72
2023-05-10T13:51:02.837Z,72
2023-05-10T13:52:02.901Z,72
2023-05-10T13:53:02.810Z,72
2023-05-10T13:54:02.532Z,72
2023-05-10T13:55:03.248Z,72
2023-05-10T13:56:09.534Z,72
2023-05-10T13:57:02.702Z,72
2023-05-10T13:58:02.765Z,72
2023-05-10T13:59:02.793Z,72
2023-05-10T14:00:03.458Z,72
2023-05-10T14:01:03.275Z,72
2023-05-10T14:02:03.498Z,72
2023-05-10T14:03:03.386Z,72
2023-05-10T14:04:03.292Z,72
2023-05-10T14:05:02.936Z,72
2023-05-10T14:06:02.981Z,72
2023-05-10T14:07:02.818Z,72
2023-05-10T14:08:02.823Z,72
2023-05-10T14:09:02.699Z,72
2023-05-10T14:10:03.434Z,72
2023-05-10T14:11:03.208Z,72
2023-05-10T14:12:03.181Z,72
2023-05-10T14:13:03.068Z,72
2023-05-10T14:14:02.970Z,72
2023-05-10T14:15:03.570Z,72